AirNav   Everest Fuels
 
 506 users online  

89PA Kirschstein Heliport
Murrysville, Pennsylvania, USA

GOING TO MURRYSVILLE?


FAA INFORMATION EFFECTIVE 18 JUNE 2020

Location

FAA Identifier: 89PA
Lat/Long: 40-27-58.2400N 079-37-41.1900W
40-27.970667N 079-37.686500W
40.4661778,-79.6281083
(estimated)
Elevation: 1195 ft. / 364 m (estimated)
Variation: 09W (1995)
From city: 5 miles SW of MURRYSVILLE, PA
Time zone: UTC -4 (UTC -5 during Standard Time)
Zip code: 15668

Heliport Operations

Heliport use: Private use. Permission required prior to landing
Activation date: 08/1998
Control tower: no
ARTCC: CLEVELAND CENTER
FSS: ALTOONA FLIGHT SERVICE STATION
Attendance: UNATNDD
Wind indicator: yes
Segmented circle: no

Heliport Communications

WX AWOS-3 at LBE (15 nm SE): 118.375 (724-539-0671)
WX ASOS at AGC (15 nm SW): 120.55 (412-466-8968)
WX AWOS-A at 42PN (17 nm W): PHONE 412-442-2213
WX AWOS-3 at FWQ (18 nm SW): 118.475 (724-379-5815)

Nearby radio navigation aids

VOR radial/distance  VOR name  Freq  Var
AGCr068/22.0ALLEGHENY VOR/DME110.0009W
IHDr343/32.0INDIAN HEAD VORTAC108.2006W
EWCr137/34.2ELLWOOD CITY VOR/DME115.8008W
JSTr290/37.4JOHNSTOWN VOR/DME113.0006W

 
NDB name  Hdg/Dist  Freq  Var  ID
STOYSTOWN315/39.820910WSYS ... -.-- ...

Heliport Services

Runway Information

Helipad H1

Dimensions: 26 x 26 ft. / 8 x 8 m
Surface: concrete
Traffic pattern: leftleft

Heliport Ownership and Management from official FAA records

Ownership: Privately-owned
Owner: KIRSCHSTEIN, LLC
1370 WASHINGTON PIKE, SUITE 403
BRIDGEVILLE, PA 15017-9606
Phone 724-379-7535
Manager: MARY-LOU HASSON
1370 WASHINGTON PIKE, SUITE 403
BRIDGEVILLE, PA 15017-9606
Phone 724-379-7535

Additional Remarks

FOR CD CTC PITTSBURGH APCH AT 412-472-5591

Instrument Procedures

There are no published instrument procedures at 89PA.

Some nearby airports with instrument procedures:

KLBE - Arnold Palmer Regional Airport (15 nm SE)
KAGC - Allegheny County Airport (15 nm SW)
6P7 - McVille Airport (16 nm N)
KFWQ - Rostraver Airport (18 nm SW)
G05 - Finleyville Airpark (22 nm SW)
 
Loc | Ops | Rwys | IFR | FBO | Links
Com | Nav | Svcs | Stats | Notes
Area around 89PA (Kirschstein Heliport)
 
Road maps at: MapQuest Bing Google
 
Aerial photo
No photo
 
Sectional chart

 
Airport distance calculator
Flying to Kirschstein Heliport? Find the distance to fly.

From to 89PA

Sunrise and sunset
Times for 11-Jul-2020
 Local
(UTC-4)
 Zulu
(UTC)
Morning civil twilight05:2709:27
Sunrise06:0010:00
Sunset20:4900:49
Evening civil twilight21:2101:21

Current date and time
Zulu (UTC)  11-Jul-2020 04:59:50
Local (UTC-4)  11-Jul-2020 00:59:50
 
METAR
KAGC 
15nm SW 
110453Z 20007KT 10SM FEW031 SCT048 BKN120 21/19 A2976 RMK AO2 SLP069 T02060194 403390206
KLBE 
16nm SE 
110455Z AUTO 00000KT 10SM SCT034 BKN044 21/21 A2976 RMK AO2
KP53 
18nm SW 
110356Z AUTO 18006KT 16/15 A2981 RMK AO1 SLP095 T01610150
KBTP 
23nm NW 
110356Z AUTO 21006KT 10SM FEW003 BKN041 20/19 A2979 RMK AO2 SLP083 T02000194
KIDI 
26nm E 
110455Z AUTO 21003KT 5SM BR FEW003 OVC039 19/19 A2980 RMK A01
KPIT 
29nm W 
110451Z 18005KT 10SM SCT024 OVC031 21/19 A2976 RMK AO2 SLP073 T02060194 403220200
TAF
KAGC 
15nm SW 
110401Z 1104/1124 18005KT P6SM BKN035 FM110600 VRB05KT P6SM -RA BKN025 FM111200 21007KT P6SM -RA OVC008 FM111600 27012G20KT P6SM OVC010 FM111900 27012G20KT P6SM BKN040
KLBE 
16nm SE 
110139Z 1102/1124 21005KT P6SM BKN035 FM110700 VRB05KT P6SM -RA OVC008 FM111800 27012G20KT P6SM OVC010 FM112200 27012G20KT P6SM BKN040
NOTAMs
Click for the latest NOTAMs
NOTAMs are issued by the DoD/FAA and will open in a separate window not controlled by AirNav.

 

 
 

Would you like to see your business listed on this page?

 If your business provides an interesting product or service to pilots, flight crews, aircraft, or users of the Kirschstein Heliport, you should consider listing it here.  To start the listing process, click on the button below
 
Add a business
 

Other Pages about Kirschstein Heliport

Update a link
 
Copyright © AirNav, LLC. All rights reserved. Privacy Policy  Contact